sensor_id;sensor_type;location;lat;lon;timestamp;pressure;altitude;pressure_sealevel;temperature;humidity
77212;BME280;66206;0.000;0.000;2023-07-31T00:01:34;97855.48;;;25.30;28.02
77212;BME280;66206;0.000;0.000;2023-07-31T00:04:00;97847.92;;;25.28;27.99
77212;BME280;66206;0.000;0.000;2023-07-31T00:06:27;97848.55;;;24.98;28.22
77212;BME280;66206;0.000;0.000;2023-07-31T00:08:54;97840.86;;;25.19;28.07
77212;BME280;66206;0.000;0.000;2023-07-31T00:11:21;97839.42;;;25.29;27.97
77212;BME280;66206;0.000;0.000;2023-07-31T00:13:48;97838.45;;;25.01;28.14
77212;BME280;66206;0.000;0.000;2023-07-31T00:16:14;97834.23;;;25.16;28.10
77212;BME280;66206;0.000;0.000;2023-07-31T00:18:41;97834.23;;;25.15;28.09
77212;BME280;66206;0.000;0.000;2023-07-31T00:21:08;97830.61;;;25.12;28.01
77212;BME280;66206;0.000;0.000;2023-07-31T00:23:35;97833.50;;;25.12;28.02
77212;BME280;66206;0.000;0.000;2023-07-31T00:26:01;97829.63;;;24.89;28.40
77212;BME280;66206;0.000;0.000;2023-07-31T00:28:28;97831.91;;;24.97;28.21
77212;BME280;66206;0.000;0.000;2023-07-31T00:30:55;97831.43;;;25.15;28.14
77212;BME280;66206;0.000;0.000;2023-07-31T00:33:22;97832.53;;;25.13;28.12
77212;BME280;66206;0.000;0.000;2023-07-31T00:35:48;97829.90;;;25.09;28.14
77212;BME280;66206;0.000;0.000;2023-07-31T00:38:15;97826.10;;;25.10;28.17
77212;BME280;66206;0.000;0.000;2023-07-31T00:40:42;97827.43;;;24.90;28.24
77212;BME280;66206;0.000;0.000;2023-07-31T00:43:09;97831.52;;;25.05;28.11
77212;BME280;66206;0.000;0.000;2023-07-31T00:45:35;97830.32;;;24.97;28.32
77212;BME280;66206;0.000;0.000;2023-07-31T00:48:02;97828.94;;;24.86;28.32
77212;BME280;66206;0.000;0.000;2023-07-31T00:50:29;97822.00;;;24.92;28.46
77212;BME280;66206;0.000;0.000;2023-07-31T00:52:56;97826.50;;;24.99;28.39
77212;BME280;66206;0.000;0.000;2023-07-31T00:55:23;97825.43;;;25.13;28.23
77212;BME280;66206;0.000;0.000;2023-07-31T00:57:50;97825.74;;;25.09;28.10
77212;BME280;66206;0.000;0.000;2023-07-31T01:00:17;97826.67;;;24.93;28.17
77212;BME280;66206;0.000;0.000;2023-07-31T01:02:44;97826.26;;;25.22;27.97
77212;BME280;66206;0.000;0.000;2023-07-31T01:05:11;97826.21;;;24.98;28.15
77212;BME280;66206;0.000;0.000;2023-07-31T01:07:39;97826.87;;;25.05;28.23
77212;BME280;66206;0.000;0.000;2023-07-31T01:10:04;97822.38;;;24.86;28.36
77212;BME280;66206;0.000;0.000;2023-07-31T01:12:28;97820.45;;;24.74;28.58
77212;BME280;66206;0.000;0.000;2023-07-31T01:15:04;97819.91;;;24.94;28.30
77212;BME280;66206;0.000;0.000;2023-07-31T01:17:26;97813.62;;;25.02;28.33
77212;BME280;66206;0.000;0.000;2023-07-31T01:19:53;97810.48;;;25.04;28.23
77212;BME280;66206;0.000;0.000;2023-07-31T01:22:24;97812.34;;;24.99;28.30
77212;BME280;66206;0.000;0.000;2023-07-31T01:24:55;97811.37;;;25.13;28.21
77212;BME280;66206;0.000;0.000;2023-07-31T01:27:20;97807.44;;;25.16;28.15
77212;BME280;66206;0.000;0.000;2023-07-31T01:29:44;97806.57;;;24.92;28.35
77212;BME280;66206;0.000;0.000;2023-07-31T01:32:12;97804.91;;;24.82;28.44
77212;BME280;66206;0.000;0.000;2023-07-31T01:34:40;97808.73;;;25.14;28.30
77212;BME280;66206;0.000;0.000;2023-07-31T01:37:08;97809.97;;;25.05;28.31
77212;BME280;66206;0.000;0.000;2023-07-31T01:39:35;97805.21;;;25.05;28.31
77212;BME280;66206;0.000;0.000;2023-07-31T01:42:01;97805.83;;;24.98;28.45
77212;BME280;66206;0.000;0.000;2023-07-31T01:44:28;97805.35;;;25.11;28.30
77212;BME280;66206;0.000;0.000;2023-07-31T01:46:55;97804.12;;;25.04;28.39
77212;BME280;66206;0.000;0.000;2023-07-31T01:49:22;97801.84;;;25.05;28.43
77212;BME280;66206;0.000;0.000;2023-07-31T01:51:49;97799.89;;;25.18;28.22
77212;BME280;66206;0.000;0.000;2023-07-31T01:54:15;97799.79;;;25.01;28.40
77212;BME280;66206;0.000;0.000;2023-07-31T01:56:42;97792.29;;;24.88;28.51
77212;BME280;66206;0.000;0.000;2023-07-31T01:59:09;97795.04;;;25.14;28.41
77212;BME280;66206;0.000;0.000;2023-07-31T02:01:35;97791.91;;;25.18;28.28
77212;BME280;66206;0.000;0.000;2023-07-31T02:04:02;97784.59;;;25.23;28.29
77212;BME280;66206;0.000;0.000;2023-07-31T02:06:29;97783.48;;;25.09;28.30
77212;BME280;66206;0.000;0.000;2023-07-31T02:08:56;97781.02;;;25.17;28.28
77212;BME280;66206;0.000;0.000;2023-07-31T02:11:23;97773.84;;;25.07;28.34
77212;BME280;66206;0.000;0.000;2023-07-31T02:13:50;97769.98;;;25.12;28.26
77212;BME280;66206;0.000;0.000;2023-07-31T02:16:16;97766.64;;;24.80;28.66
77212;BME280;66206;0.000;0.000;2023-07-31T02:18:43;97757.01;;;25.08;28.52
77212;BME280;66206;0.000;0.000;2023-07-31T02:21:10;97759.69;;;25.00;28.56
77212;BME280;66206;0.000;0.000;2023-07-31T02:23:37;97765.09;;;24.97;28.60
77212;BME280;66206;0.000;0.000;2023-07-31T02:26:03;97757.37;;;25.05;28.62
77212;BME280;66206;0.000;0.000;2023-07-31T02:28:30;97757.53;;;24.89;28.76
77212;BME280;66206;0.000;0.000;2023-07-31T02:30:57;97756.55;;;25.04;28.65
77212;BME280;66206;0.000;0.000;2023-07-31T02:33:24;97757.21;;;24.91;28.77
77212;BME280;66206;0.000;0.000;2023-07-31T02:35:51;97754.85;;;25.06;28.66
77212;BME280;66206;0.000;0.000;2023-07-31T02:38:17;97757.14;;;24.98;28.71
77212;BME280;66206;0.000;0.000;2023-07-31T02:40:44;97756.94;;;24.79;28.83
77212;BME280;66206;0.000;0.000;2023-07-31T02:43:11;97753.31;;;25.05;28.68
77212;BME280;66206;0.000;0.000;2023-07-31T02:45:37;97754.18;;;24.93;28.79
77212;BME280;66206;0.000;0.000;2023-07-31T02:48:04;97763.29;;;24.79;28.94
77212;BME280;66206;0.000;0.000;2023-07-31T02:50:31;97766.37;;;24.87;28.77
77212;BME280;66206;0.000;0.000;2023-07-31T02:52:58;97762.55;;;24.81;28.93
77212;BME280;66206;0.000;0.000;2023-07-31T02:55:25;97765.24;;;24.79;29.03
77212;BME280;66206;0.000;0.000;2023-07-31T02:57:52;97758.28;;;24.83;28.84
77212;BME280;66206;0.000;0.000;2023-07-31T03:00:19;97760.32;;;24.83;28.90
77212;BME280;66206;0.000;0.000;2023-07-31T03:02:45;97756.68;;;24.88;28.85
77212;BME280;66206;0.000;0.000;2023-07-31T03:05:12;97757.10;;;24.85;28.91
77212;BME280;66206;0.000;0.000;2023-07-31T03:07:39;97757.16;;;24.87;28.90
77212;BME280;66206;0.000;0.000;2023-07-31T03:10:06;97755.85;;;24.78;28.96
77212;BME280;66206;0.000;0.000;2023-07-31T03:12:33;97753.09;;;24.75;28.99
77212;BME280;66206;0.000;0.000;2023-07-31T03:15:00;97750.52;;;24.79;29.06
77212;BME280;66206;0.000;0.000;2023-07-31T03:17:26;97747.46;;;24.89;28.92
77212;BME280;66206;0.000;0.000;2023-07-31T03:19:53;97754.62;;;24.64;29.24
77212;BME280;66206;0.000;0.000;2023-07-31T03:22:20;97751.90;;;24.34;29.54
77212;BME280;66206;0.000;0.000;2023-07-31T03:24:47;97750.97;;;24.66;29.18
77212;BME280;66206;0.000;0.000;2023-07-31T03:27:13;97747.21;;;24.48;29.38
77212;BME280;66206;0.000;0.000;2023-07-31T03:29:40;97744.10;;;24.80;29.11
77212;BME280;66206;0.000;0.000;2023-07-31T03:32:07;97748.93;;;24.58;29.29
77212;BME280;66206;0.000;0.000;2023-07-31T03:34:34;97746.23;;;24.44;29.51
77212;BME280;66206;0.000;0.000;2023-07-31T03:37:00;97748.53;;;24.51;29.38
77212;BME280;66206;0.000;0.000;2023-07-31T03:39:27;97743.12;;;24.28;29.67
77212;BME280;66206;0.000;0.000;2023-07-31T03:41:54;97747.36;;;24.77;29.21
77212;BME280;66206;0.000;0.000;2023-07-31T03:44:21;97745.85;;;24.52;29.43
77212;BME280;66206;0.000;0.000;2023-07-31T03:46:48;97746.07;;;24.59;29.43
77212;BME280;66206;0.000;0.000;2023-07-31T03:49:14;97747.03;;;24.43;29.59
77212;BME280;66206;0.000;0.000;2023-07-31T03:51:41;97742.00;;;24.52;29.52
77212;BME280;66206;0.000;0.000;2023-07-31T03:54:08;97740.66;;;24.73;29.29
77212;BME280;66206;0.000;0.000;2023-07-31T03:56:35;97740.58;;;24.80;29.25
77212;BME280;66206;0.000;0.000;2023-07-31T03:59:01;97742.32;;;24.73;29.28
77212;BME280;66206;0.000;0.000;2023-07-31T04:01:28;97748.39;;;24.73;29.37
77212;BME280;66206;0.000;0.000;2023-07-31T04:03:55;97750.80;;;24.75;29.37
77212;BME280;66206;0.000;0.000;2023-07-31T04:06:22;97747.69;;;24.90;29.14
77212;BME280;66206;0.000;0.000;2023-07-31T04:08:49;97748.40;;;24.87;29.28
77212;BME280;66206;0.000;0.000;2023-07-31T04:11:15;97749.05;;;24.84;29.26
77212;BME280;66206;0.000;0.000;2023-07-31T04:13:42;97745.68;;;24.95;29.26
77212;BME280;66206;0.000;0.000;2023-07-31T04:16:09;97743.94;;;24.90;29.34
77212;BME280;66206;0.000;0.000;2023-07-31T04:18:36;97743.11;;;25.00;29.25
77212;BME280;66206;0.000;0.000;2023-07-31T04:21:02;97743.61;;;24.69;29.58
77212;BME280;66206;0.000;0.000;2023-07-31T04:23:29;97735.93;;;24.52;29.73
77212;BME280;66206;0.000;0.000;2023-07-31T04:25:56;97745.87;;;24.50;29.69
77212;BME280;66206;0.000;0.000;2023-07-31T04:28:23;97749.95;;;24.54;29.69
77212;BME280;66206;0.000;0.000;2023-07-31T04:30:49;97748.34;;;24.55;29.68
77212;BME280;66206;0.000;0.000;2023-07-31T04:33:16;97749.52;;;24.66;29.53
77212;BME280;66206;0.000;0.000;2023-07-31T04:35:48;97746.32;;;24.48;29.65
77212;BME280;66206;0.000;0.000;2023-07-31T04:38:09;97742.65;;;24.59;29.71
77212;BME280;66206;0.000;0.000;2023-07-31T04:40:36;97744.07;;;24.36;29.88
77212;BME280;66206;0.000;0.000;2023-07-31T04:43:03;97741.92;;;24.65;29.68
77212;BME280;66206;0.000;0.000;2023-07-31T04:45:30;97741.21;;;24.28;29.95
77212;BME280;66206;0.000;0.000;2023-07-31T04:47:57;97739.44;;;24.10;30.17
77212;BME280;66206;0.000;0.000;2023-07-31T04:50:23;97735.69;;;24.40;29.89
77212;BME280;66206;0.000;0.000;2023-07-31T04:52:50;97732.24;;;24.62;29.64
77212;BME280;66206;0.000;0.000;2023-07-31T04:55:17;97733.14;;;24.60;29.61
77212;BME280;66206;0.000;0.000;2023-07-31T04:57:44;97731.24;;;24.52;29.71
77212;BME280;66206;0.000;0.000;2023-07-31T05:00:11;97729.22;;;24.45;29.76
77212;BME280;66206;0.000;0.000;2023-07-31T05:02:37;97725.54;;;24.27;29.99
77212;BME280;66206;0.000;0.000;2023-07-31T05:05:04;97724.24;;;24.15;30.08
77212;BME280;66206;0.000;0.000;2023-07-31T05:07:31;97720.47;;;24.50;29.76
77212;BME280;66206;0.000;0.000;2023-07-31T05:09:58;97717.05;;;24.45;29.71
77212;BME280;66206;0.000;0.000;2023-07-31T05:12:24;97723.68;;;24.08;30.11
77212;BME280;66206;0.000;0.000;2023-07-31T05:14:51;97716.31;;;24.52;29.76
77212;BME280;66206;0.000;0.000;2023-07-31T05:17:18;97719.01;;;24.29;29.91
77212;BME280;66206;0.000;0.000;2023-07-31T05:19:45;97717.04;;;24.09;30.09
77212;BME280;66206;0.000;0.000;2023-07-31T05:22:11;97720.69;;;23.95;30.22
77212;BME280;66206;0.000;0.000;2023-07-31T05:24:38;97725.50;;;24.24;30.00
77212;BME280;66206;0.000;0.000;2023-07-31T05:27:05;97726.80;;;24.00;30.10
77212;BME280;66206;0.000;0.000;2023-07-31T05:29:32;97727.55;;;24.41;29.80
77212;BME280;66206;0.000;0.000;2023-07-31T05:31:59;97727.63;;;24.23;29.91
77212;BME280;66206;0.000;0.000;2023-07-31T05:34:26;97727.63;;;24.32;29.95
77212;BME280;66206;0.000;0.000;2023-07-31T05:36:53;97725.60;;;23.86;30.31
77212;BME280;66206;0.000;0.000;2023-07-31T05:39:19;97727.76;;;24.21;29.93
77212;BME280;66206;0.000;0.000;2023-07-31T05:41:46;97726.91;;;23.93;30.22
77212;BME280;66206;0.000;0.000;2023-07-31T05:44:13;97730.78;;;24.41;29.79
77212;BME280;66206;0.000;0.000;2023-07-31T05:46:40;97737.29;;;24.11;30.02
77212;BME280;66206;0.000;0.000;2023-07-31T05:49:07;97738.90;;;24.25;29.85
77212;BME280;66206;0.000;0.000;2023-07-31T05:51:34;97737.73;;;24.10;29.97
77212;BME280;66206;0.000;0.000;2023-07-31T05:54:00;97737.29;;;24.15;29.66
77212;BME280;66206;0.000;0.000;2023-07-31T05:56:27;97728.54;;;24.42;29.34
77212;BME280;66206;0.000;0.000;2023-07-31T05:58:54;97723.64;;;24.69;29.05
77212;BME280;66206;0.000;0.000;2023-07-31T06:01:20;97719.49;;;24.98;29.12
77212;BME280;66206;0.000;0.000;2023-07-31T06:03:47;97719.42;;;24.81;29.37
77212;BME280;66206;0.000;0.000;2023-07-31T06:06:14;97715.80;;;24.70;29.53
77212;BME280;66206;0.000;0.000;2023-07-31T06:08:41;97713.07;;;24.35;29.88
77212;BME280;66206;0.000;0.000;2023-07-31T06:11:07;97706.30;;;24.51;29.84
77212;BME280;66206;0.000;0.000;2023-07-31T06:13:34;97707.66;;;24.53;29.80
77212;BME280;66206;0.000;0.000;2023-07-31T06:16:01;97712.27;;;24.30;29.95
77212;BME280;66206;0.000;0.000;2023-07-31T06:18:28;97716.40;;;24.59;29.79
77212;BME280;66206;0.000;0.000;2023-07-31T06:20:54;97721.80;;;24.22;30.13
77212;BME280;66206;0.000;0.000;2023-07-31T06:23:21;97718.21;;;24.45;29.97
77212;BME280;66206;0.000;0.000;2023-07-31T06:25:48;97720.92;;;24.66;29.67
77212;BME280;66206;0.000;0.000;2023-07-31T06:28:14;97719.33;;;24.57;29.78
77212;BME280;66206;0.000;0.000;2023-07-31T06:30:41;97723.92;;;24.59;29.73
77212;BME280;66206;0.000;0.000;2023-07-31T06:33:08;97727.94;;;24.44;29.93
77212;BME280;66206;0.000;0.000;2023-07-31T06:35:35;97730.20;;;24.45;29.97
77212;BME280;66206;0.000;0.000;2023-07-31T06:38:02;97728.84;;;24.32;30.16
77212;BME280;66206;0.000;0.000;2023-07-31T06:40:28;97727.21;;;24.49;29.92
77212;BME280;66206;0.000;0.000;2023-07-31T06:42:55;97726.25;;;24.18;30.38
77212;BME280;66206;0.000;0.000;2023-07-31T06:45:22;97722.77;;;24.47;30.07
77212;BME280;66206;0.000;0.000;2023-07-31T06:47:49;97726.26;;;24.57;29.80
77212;BME280;66206;0.000;0.000;2023-07-31T06:50:16;97716.46;;;24.54;29.79
77212;BME280;66206;0.000;0.000;2023-07-31T06:52:43;97718.90;;;24.55;29.74
77212;BME280;66206;0.000;0.000;2023-07-31T06:55:16;97719.33;;;24.44;29.86
77212;BME280;66206;0.000;0.000;2023-07-31T06:57:38;97716.76;;;24.65;29.74
77212;BME280;66206;0.000;0.000;2023-07-31T07:00:05;97714.35;;;24.50;29.77
77212;BME280;66206;0.000;0.000;2023-07-31T07:02:32;97718.61;;;24.43;29.93
77212;BME280;66206;0.000;0.000;2023-07-31T07:04:59;97717.14;;;24.53;29.77
77212;BME280;66206;0.000;0.000;2023-07-31T07:07:26;97720.58;;;24.55;29.70
77212;BME280;66206;0.000;0.000;2023-07-31T07:09:53;97724.52;;;24.49;29.95
77212;BME280;66206;0.000;0.000;2023-07-31T07:12:19;97730.18;;;24.53;29.92
77212;BME280;66206;0.000;0.000;2023-07-31T07:14:46;97724.18;;;24.90;29.56
77212;BME280;66206;0.000;0.000;2023-07-31T07:17:13;97725.98;;;25.12;29.44
77212;BME280;66206;0.000;0.000;2023-07-31T07:19:40;97720.78;;;25.23;29.43
77212;BME280;66206;0.000;0.000;2023-07-31T07:22:07;97724.51;;;24.78;29.89
77212;BME280;66206;0.000;0.000;2023-07-31T07:24:34;97718.75;;;24.91;29.68
77212;BME280;66206;0.000;0.000;2023-07-31T07:27:00;97721.87;;;24.56;30.09
77212;BME280;66206;0.000;0.000;2023-07-31T07:29:27;97722.14;;;25.13;29.79
77212;BME280;66206;0.000;0.000;2023-07-31T07:31:54;97716.71;;;25.30;29.54
77212;BME280;66206;0.000;0.000;2023-07-31T07:34:22;97718.36;;;25.20;29.38
77212;BME280;66206;0.000;0.000;2023-07-31T07:36:48;97723.99;;;25.09;29.44
77212;BME280;66206;0.000;0.000;2023-07-31T07:39:15;97728.29;;;25.24;29.38
77212;BME280;66206;0.000;0.000;2023-07-31T07:41:42;97729.78;;;25.11;29.59
77212;BME280;66206;0.000;0.000;2023-07-31T07:44:09;97728.91;;;24.94;29.75
77212;BME280;66206;0.000;0.000;2023-07-31T07:46:36;97729.50;;;25.13;29.43
77212;BME280;66206;0.000;0.000;2023-07-31T07:49:02;97726.15;;;25.45;29.02
77212;BME280;66206;0.000;0.000;2023-07-31T07:51:29;97724.94;;;25.16;29.26
77212;BME280;66206;0.000;0.000;2023-07-31T07:53:56;97725.64;;;25.38;29.14
77212;BME280;66206;0.000;0.000;2023-07-31T07:56:23;97729.75;;;25.23;29.10
77212;BME280;66206;0.000;0.000;2023-07-31T07:58:50;97727.12;;;25.33;29.13
77212;BME280;66206;0.000;0.000;2023-07-31T08:01:17;97726.55;;;25.49;28.85
77212;BME280;66206;0.000;0.000;2023-07-31T08:03:43;97720.10;;;25.52;28.89
77212;BME280;66206;0.000;0.000;2023-07-31T08:06:10;97714.48;;;25.21;29.01
77212;BME280;66206;0.000;0.000;2023-07-31T08:08:37;97710.64;;;25.08;29.21
77212;BME280;66206;0.000;0.000;2023-07-31T08:11:04;97711.47;;;25.63;28.66
77212;BME280;66206;0.000;0.000;2023-07-31T08:13:31;97716.63;;;25.15;29.01
77212;BME280;66206;0.000;0.000;2023-07-31T08:15:58;97715.26;;;25.35;28.98
77212;BME280;66206;0.000;0.000;2023-07-31T08:18:25;97714.61;;;25.48;28.69
77212;BME280;66206;0.000;0.000;2023-07-31T08:20:51;97719.50;;;25.05;29.25
77212;BME280;66206;0.000;0.000;2023-07-31T08:23:18;97723.09;;;25.80;28.47
77212;BME280;66206;0.000;0.000;2023-07-31T08:25:45;97718.15;;;25.69;28.49
77212;BME280;66206;0.000;0.000;2023-07-31T08:28:12;97712.37;;;25.44;28.74
77212;BME280;66206;0.000;0.000;2023-07-31T08:30:38;97710.54;;;25.03;29.11
77212;BME280;66206;0.000;0.000;2023-07-31T08:33:05;97702.59;;;25.63;28.45
77212;BME280;66206;0.000;0.000;2023-07-31T08:35:32;97690.87;;;25.62;28.52
77212;BME280;66206;0.000;0.000;2023-07-31T08:37:59;97685.33;;;25.77;28.48
77212;BME280;66206;0.000;0.000;2023-07-31T08:40:25;97676.57;;;25.50;28.69
77212;BME280;66206;0.000;0.000;2023-07-31T08:42:53;97677.29;;;25.18;28.87
77212;BME280;66206;0.000;0.000;2023-07-31T08:45:20;97671.48;;;25.45;28.61
77212;BME280;66206;0.000;0.000;2023-07-31T08:47:47;97667.12;;;25.12;29.24
77212;BME280;66206;0.000;0.000;2023-07-31T08:50:16;97663.22;;;25.90;28.44
77212;BME280;66206;0.000;0.000;2023-07-31T08:52:43;97666.11;;;25.32;28.70
77212;BME280;66206;0.000;0.000;2023-07-31T08:55:10;97663.30;;;25.31;28.84
77212;BME280;66206;0.000;0.000;2023-07-31T08:57:37;97664.22;;;25.56;28.64
77212;BME280;66206;0.000;0.000;2023-07-31T09:00:05;97663.98;;;25.90;28.37
77212;BME280;66206;0.000;0.000;2023-07-31T09:02:34;97655.96;;;25.94;28.22
77212;BME280;66206;0.000;0.000;2023-07-31T09:05:01;97666.42;;;25.63;28.76
77212;BME280;66206;0.000;0.000;2023-07-31T09:07:28;97667.77;;;25.23;28.95
77212;BME280;66206;0.000;0.000;2023-07-31T09:09:56;97667.17;;;25.17;28.98
77212;BME280;66206;0.000;0.000;2023-07-31T09:12:23;97666.54;;;25.66;28.47
77212;BME280;66206;0.000;0.000;2023-07-31T09:14:51;97659.09;;;25.58;28.96
77212;BME280;66206;0.000;0.000;2023-07-31T09:17:28;97660.43;;;25.28;28.91
77212;BME280;66206;0.000;0.000;2023-07-31T09:19:44;97659.91;;;25.46;28.89
77212;BME280;66206;0.000;0.000;2023-07-31T09:22:11;97657.28;;;25.50;28.85
77212;BME280;66206;0.000;0.000;2023-07-31T09:24:38;97645.13;;;25.81;28.47
77212;BME280;66206;0.000;0.000;2023-07-31T09:27:05;97648.27;;;25.55;28.74
77212;BME280;66206;0.000;0.000;2023-07-31T09:29:32;97650.72;;;25.46;28.69
77212;BME280;66206;0.000;0.000;2023-07-31T09:31:59;97646.28;;;25.27;29.05
77212;BME280;66206;0.000;0.000;2023-07-31T09:34:29;97649.75;;;25.37;28.86
77212;BME280;66206;0.000;0.000;2023-07-31T09:36:50;97647.17;;;25.44;28.90
77212;BME280;66206;0.000;0.000;2023-07-31T09:39:17;97650.12;;;25.49;28.75
77212;BME280;66206;0.000;0.000;2023-07-31T09:41:45;97645.65;;;25.23;28.98
77212;BME280;66206;0.000;0.000;2023-07-31T09:44:11;97646.41;;;25.47;28.62
77212;BME280;66206;0.000;0.000;2023-07-31T09:46:38;97648.92;;;25.46;28.62
77212;BME280;66206;0.000;0.000;2023-07-31T09:49:06;97638.97;;;25.54;28.55
77212;BME280;66206;0.000;0.000;2023-07-31T09:51:33;97635.96;;;25.53;28.85
77212;BME280;66206;0.000;0.000;2023-07-31T09:54:00;97632.10;;;25.63;28.68
77212;BME280;66206;0.000;0.000;2023-07-31T09:56:27;97624.13;;;25.74;28.54
77212;BME280;66206;0.000;0.000;2023-07-31T09:58:54;97626.55;;;25.47;28.95
77212;BME280;66206;0.000;0.000;2023-07-31T10:01:22;97626.62;;;25.58;28.65
77212;BME280;66206;0.000;0.000;2023-07-31T10:03:49;97620.88;;;25.20;29.03
77212;BME280;66206;0.000;0.000;2023-07-31T10:06:16;97623.80;;;25.62;28.61
77212;BME280;66206;0.000;0.000;2023-07-31T10:08:43;97621.40;;;25.58;28.75
77212;BME280;66206;0.000;0.000;2023-07-31T10:11:11;97619.06;;;25.59;28.72
77212;BME280;66206;0.000;0.000;2023-07-31T10:13:39;97617.00;;;25.59;28.78
77212;BME280;66206;0.000;0.000;2023-07-31T10:16:08;97614.68;;;25.53;28.79
77212;BME280;66206;0.000;0.000;2023-07-31T10:18:35;97609.52;;;25.95;28.37
77212;BME280;66206;0.000;0.000;2023-07-31T10:21:01;97616.23;;;25.28;29.12
77212;BME280;66206;0.000;0.000;2023-07-31T10:23:28;97605.62;;;25.29;29.14
77212;BME280;66206;0.000;0.000;2023-07-31T10:25:55;97607.90;;;24.95;29.33
77212;BME280;66206;0.000;0.000;2023-07-31T10:28:23;97593.70;;;25.44;28.89
77212;BME280;66206;0.000;0.000;2023-07-31T10:30:51;97588.99;;;25.69;28.90
77212;BME280;66206;0.000;0.000;2023-07-31T10:33:18;97589.83;;;25.93;28.58
77212;BME280;66206;0.000;0.000;2023-07-31T10:35:46;97587.89;;;25.57;28.82
77212;BME280;66206;0.000;0.000;2023-07-31T10:38:13;97584.29;;;25.49;28.95
77212;BME280;66206;0.000;0.000;2023-07-31T10:40:40;97584.11;;;25.42;28.92
77212;BME280;66206;0.000;0.000;2023-07-31T10:43:07;97581.55;;;25.77;28.64
77212;BME280;66206;0.000;0.000;2023-07-31T10:45:34;97569.33;;;25.61;28.74
77212;BME280;66206;0.000;0.000;2023-07-31T10:48:02;97566.03;;;26.20;28.24
77212;BME280;66206;0.000;0.000;2023-07-31T10:50:29;97565.57;;;25.87;28.55
77212;BME280;66206;0.000;0.000;2023-07-31T10:52:57;97558.73;;;25.88;28.70
77212;BME280;66206;0.000;0.000;2023-07-31T10:55:25;97552.97;;;26.15;28.03
77212;BME280;66206;0.000;0.000;2023-07-31T10:57:52;97557.65;;;26.05;28.75
77212;BME280;66206;0.000;0.000;2023-07-31T11:00:20;97553.47;;;25.93;28.45
77212;BME280;66206;0.000;0.000;2023-07-31T11:03:04;97553.82;;;25.80;28.61
77212;BME280;66206;0.000;0.000;2023-07-31T11:05:16;97554.37;;;26.07;28.26
77212;BME280;66206;0.000;0.000;2023-07-31T11:07:46;97545.65;;;25.57;28.91
77212;BME280;66206;0.000;0.000;2023-07-31T11:10:08;97544.89;;;25.85;28.31
77212;BME280;66206;0.000;0.000;2023-07-31T11:12:35;97544.78;;;25.78;28.51
77212;BME280;66206;0.000;0.000;2023-07-31T11:15:02;97544.75;;;25.62;28.76
77212;BME280;66206;0.000;0.000;2023-07-31T11:17:29;97542.85;;;26.08;28.31
77212;BME280;66206;0.000;0.000;2023-07-31T11:19:56;97544.44;;;25.65;28.64
77212;BME280;66206;0.000;0.000;2023-07-31T11:22:22;97535.46;;;25.18;29.13
77212;BME280;66206;0.000;0.000;2023-07-31T11:24:49;97535.27;;;25.65;28.73
77212;BME280;66206;0.000;0.000;2023-07-31T11:27:16;97532.40;;;25.93;28.62
77212;BME280;66206;0.000;0.000;2023-07-31T11:29:43;97540.27;;;25.59;28.77
77212;BME280;66206;0.000;0.000;2023-07-31T11:32:15;97539.22;;;26.00;28.36
77212;BME280;66206;0.000;0.000;2023-07-31T11:34:50;97537.93;;;25.98;28.45
77212;BME280;66206;0.000;0.000;2023-07-31T11:37:06;97541.85;;;25.63;28.68
77212;BME280;66206;0.000;0.000;2023-07-31T11:39:33;97535.74;;;25.94;28.28
77212;BME280;66206;0.000;0.000;2023-07-31T11:42:00;97535.55;;;26.08;28.16
77212;BME280;66206;0.000;0.000;2023-07-31T11:44:27;97538.68;;;25.95;28.35
77212;BME280;66206;0.000;0.000;2023-07-31T11:46:53;97537.04;;;25.81;28.37
77212;BME280;66206;0.000;0.000;2023-07-31T11:49:22;97532.58;;;25.69;28.28
77212;BME280;66206;0.000;0.000;2023-07-31T11:51:49;97528.81;;;25.86;28.24
77212;BME280;66206;0.000;0.000;2023-07-31T11:54:16;97525.41;;;26.00;27.98
77212;BME280;66206;0.000;0.000;2023-07-31T11:56:43;97528.58;;;26.17;27.73
77212;BME280;66206;0.000;0.000;2023-07-31T11:59:10;97522.56;;;25.74;28.22
77212;BME280;66206;0.000;0.000;2023-07-31T12:01:37;97527.53;;;26.24;28.07
77212;BME280;66206;0.000;0.000;2023-07-31T12:04:04;97529.31;;;26.14;27.97
77212;BME280;66206;0.000;0.000;2023-07-31T12:06:32;97527.06;;;26.16;27.95
77212;BME280;66206;0.000;0.000;2023-07-31T12:09:00;97522.22;;;26.04;28.12
77212;BME280;66206;0.000;0.000;2023-07-31T12:11:27;97516.43;;;26.48;27.65
77212;BME280;66206;0.000;0.000;2023-07-31T12:13:54;97519.12;;;26.15;27.89
77212;BME280;66206;0.000;0.000;2023-07-31T12:16:21;97516.64;;;26.32;27.83
77212;BME280;66206;0.000;0.000;2023-07-31T12:18:49;97519.61;;;26.03;28.00
77212;BME280;66206;0.000;0.000;2023-07-31T12:21:16;97517.22;;;26.26;27.84
77212;BME280;66206;0.000;0.000;2023-07-31T12:23:43;97514.67;;;26.43;27.75
77212;BME280;66206;0.000;0.000;2023-07-31T12:26:11;97513.21;;;26.24;27.85
77212;BME280;66206;0.000;0.000;2023-07-31T12:28:40;97508.47;;;26.27;27.80
77212;BME280;66206;0.000;0.000;2023-07-31T12:31:08;97501.37;;;26.14;28.02
77212;BME280;66206;0.000;0.000;2023-07-31T12:33:36;97498.08;;;26.38;27.82
77212;BME280;66206;0.000;0.000;2023-07-31T12:36:04;97491.96;;;26.15;28.30
77212;BME280;66206;0.000;0.000;2023-07-31T12:38:30;97494.39;;;26.36;28.00
77212;BME280;66206;0.000;0.000;2023-07-31T12:40:57;97497.65;;;26.10;28.05
77212;BME280;66206;0.000;0.000;2023-07-31T12:43:24;97496.08;;;26.05;28.11
77212;BME280;66206;0.000;0.000;2023-07-31T12:45:51;97492.99;;;25.78;28.09
77212;BME280;66206;0.000;0.000;2023-07-31T12:48:18;97487.83;;;25.82;28.15
77212;BME280;66206;0.000;0.000;2023-07-31T12:50:45;97476.49;;;26.03;27.93
77212;BME280;66206;0.000;0.000;2023-07-31T12:53:11;97478.94;;;26.45;27.56
77212;BME280;66206;0.000;0.000;2023-07-31T12:55:38;97472.15;;;26.07;27.76
77212;BME280;66206;0.000;0.000;2023-07-31T12:58:05;97468.26;;;26.23;27.57
77212;BME280;66206;0.000;0.000;2023-07-31T13:00:32;97461.87;;;26.25;27.40
77212;BME280;66206;0.000;0.000;2023-07-31T13:02:59;97461.83;;;26.07;27.67
77212;BME280;66206;0.000;0.000;2023-07-31T13:05:26;97459.30;;;26.12;27.61
77212;BME280;66206;0.000;0.000;2023-07-31T13:07:53;97453.16;;;25.78;27.80